Alma, Missouri
Current Conditions -  °F | °C
As of 2:58 PM on Wednesday 17 Dec 2014 (Local Time) from KSZL Reporting Station
Overcast Overcast  
Wind Chill: 31°   Ceiling: 8500
Heat Index: 31°   Visibility: 10mi
Dew Point: 20°   Wind: 3mph
Humidity: 65%   Direction: 60°ENE
Pressure: 30.26"   Gusts: NA
Location:  39.1°N, 93.55°W
Report Text: KSZL 172058Z 06003KT 10SM OVC085 00/M06 A3026 RMK AO2A SLP260 T10051064 57019 $
Loading
Personal Weather Stations






























Interactive Weather Map New forecast layout! Learn more

10-Day Weather Forecast

Advertisements
Track Severe Weather on mobile